Oskaloosa, KS (66066)

4:15 PM CST on January 22, 2018 (GMT -0600)
NW Lake Perry, KS | | Change Station

Elev 910 ft 39.20 °N, 95.48 °W | Updated 11 seconds ago

Overcast
Overcast
31.5 °F
Feels Like 23 °F
N
10.0
Wind Variable Wind from NW
Gusts 19.0 mph

Today
High -- | Low -- °F
--% Chance of Precip.
Yesterday
High -- | Low -- °F
Precip. -- in
Pressure 29.55 in
Visibility 0.8 miles
Clouds Mostly Cloudy 1600 ft
Overcast 2200 ft
Windchill 23 °F
Dew Point 20 °F
Humidity 62%
Rainfall 0.00 in
Snow Depth Not available.
7:35 AM 5:30 PM
Waxing Crescent, 29% visible
SPECI KLWC 222203Z AUTO 26015KT 3/4SM -SN BR BKN016 OVC022 00/M01 A2955 RMK AO2 P0000 T00001006
Pressure 29.55 in
Visibility 0.8 miles
Clouds Mostly Cloudy 1600 ft
Overcast 2200 ft
Windchill 23 °F
Dew Point 20 °F
Humidity 62%
Rainfall 0.00 in
Snow Depth Not available.
7:35 AM 5:30 PM
Waxing Crescent, 29% visible
SPECI KLWC 222203Z AUTO 26015KT 3/4SM -SN BR BKN016 OVC022 00/M01 A2955 RMK AO2 P0000 T00001006

Get Severe Weather Alerts

Thanks for signing up!

Be on the lookout for a verification email in your inbox.

You'll start receiving the daily forecast at 6 AM.

×

10-Day Weather Forecast

Almanac

Astronomy

Jan. 22, 2018 Rise Set
Actual Time
Civil Twilight
Nautical Twilight
Astronomical Twilight
Moon
Length of Visible Light
Length of Day
Tomorrow will be .
, % of the Moon is Illuminated

Today's Extremes

State Highs State Lows

Community

WunderPhotos

Category 6

Welcome to Category 6. This is the collective home for Weather Underground's featured writeups by Dr. Jeff Masters (right), Bob Henson (left), Chris Burt, and other regular contributors.

Nearby

Air Quality

  Air Quality AQ Index Pollutant
Not available.

Snow Depth

Station Depth Elevation

Earthquake Activity

City Distance Mag. Time & Date
Minimum magnitude displayed is 2.5.

Coastal Water Temperatures

Place Temperature

Stations

Nearby Weather Stations

Station Location Temp. Windchill Dew Point Humidity Wind Precip. Elev Updated Type
                   

Watches & Warnings

There are currently no watches in effect.